X  Lukk Metar værinformasjon om luftfart     ENZV Stavanger Airport Sola
Temperatur
12°C Temperatur
10°C Duggpunkt
88% Luftfuktighet



Vind
4 M/S
9 MPT
14 KM/T
8 KNP



160°
SSØ
Nåværende forhold

Overskyet Overskyet
Trykk 997.92 (hPa) - 29.47 (inHg)
Sikt 6.2 (mil) - 10 (km)
Flyplass
Flyplass-kode ENZV

Plassering: Stavanger Airport Sola
Avstand: 100 (km)

Metar:
ENZV 092250Z 16008KT 9999 OVC014 12/10 Q0998

Tid: 10-05-2021 00:50 CEST